sensor_id;sensor_type;location;lat;lon;timestamp;P1;durP1;ratioP1;P2;durP2;ratioP2
15082;SDS011;7640;53.116;6.878;2023-05-10T00:02:24;21.37;;;13.93;;
15082;SDS011;7640;53.116;6.878;2023-05-10T00:04:52;19.10;;;13.23;;
15082;SDS011;7640;53.116;6.878;2023-05-10T00:07:21;19.33;;;13.40;;
15082;SDS011;7640;53.116;6.878;2023-05-10T00:09:49;11.33;;;7.80;;
15082;SDS011;7640;53.116;6.878;2023-05-10T00:12:19;6.87;;;5.10;;
15082;SDS011;7640;53.116;6.878;2023-05-10T00:14:47;4.67;;;4.00;;
15082;SDS011;7640;53.116;6.878;2023-05-10T00:17:17;4.73;;;4.07;;
15082;SDS011;7640;53.116;6.878;2023-05-10T00:19:46;7.07;;;5.60;;
15082;SDS011;7640;53.116;6.878;2023-05-10T00:22:15;7.67;;;6.40;;
15082;SDS011;7640;53.116;6.878;2023-05-10T00:24:43;9.50;;;7.53;;
15082;SDS011;7640;53.116;6.878;2023-05-10T00:27:12;11.00;;;8.63;;
15082;SDS011;7640;53.116;6.878;2023-05-10T00:29:40;12.70;;;9.60;;
15082;SDS011;7640;53.116;6.878;2023-05-10T00:32:09;13.43;;;9.63;;
15082;SDS011;7640;53.116;6.878;2023-05-10T00:34:39;13.37;;;10.40;;
15082;SDS011;7640;53.116;6.878;2023-05-10T00:37:07;14.00;;;10.80;;
15082;SDS011;7640;53.116;6.878;2023-05-10T00:39:35;12.80;;;10.30;;
15082;SDS011;7640;53.116;6.878;2023-05-10T00:42:04;12.33;;;10.33;;
15082;SDS011;7640;53.116;6.878;2023-05-10T00:44:32;15.60;;;10.37;;
15082;SDS011;7640;53.116;6.878;2023-05-10T00:47:01;13.93;;;10.10;;
15082;SDS011;7640;53.116;6.878;2023-05-10T00:49:29;15.10;;;11.17;;
15082;SDS011;7640;53.116;6.878;2023-05-10T00:51:59;14.77;;;10.20;;
15082;SDS011;7640;53.116;6.878;2023-05-10T00:54:29;16.07;;;10.93;;
15082;SDS011;7640;53.116;6.878;2023-05-10T00:56:58;16.73;;;11.63;;
15082;SDS011;7640;53.116;6.878;2023-05-10T00:59:26;15.80;;;10.97;;
15082;SDS011;7640;53.116;6.878;2023-05-10T01:01:57;16.23;;;10.33;;
15082;SDS011;7640;53.116;6.878;2023-05-10T01:04:26;16.20;;;11.13;;
15082;SDS011;7640;53.116;6.878;2023-05-10T01:06:55;16.47;;;11.33;;
15082;SDS011;7640;53.116;6.878;2023-05-10T01:09:25;16.00;;;11.20;;
15082;SDS011;7640;53.116;6.878;2023-05-10T01:11:53;15.93;;;10.80;;
15082;SDS011;7640;53.116;6.878;2023-05-10T01:14:23;15.47;;;10.87;;
15082;SDS011;7640;53.116;6.878;2023-05-10T01:16:55;16.37;;;10.90;;
15082;SDS011;7640;53.116;6.878;2023-05-10T01:19:24;14.10;;;10.07;;
15082;SDS011;7640;53.116;6.878;2023-05-10T01:21:57;14.20;;;10.07;;
15082;SDS011;7640;53.116;6.878;2023-05-10T01:31:08;16.07;;;10.63;;
15082;SDS011;7640;53.116;6.878;2023-05-10T01:33:55;15.57;;;10.87;;
15082;SDS011;7640;53.116;6.878;2023-05-10T01:36:31;15.73;;;10.50;;
15082;SDS011;7640;53.116;6.878;2023-05-10T01:39:09;17.83;;;11.50;;
15082;SDS011;7640;53.116;6.878;2023-05-10T01:41:48;16.57;;;10.63;;
15082;SDS011;7640;53.116;6.878;2023-05-10T01:44:23;15.60;;;10.37;;
15082;SDS011;7640;53.116;6.878;2023-05-10T01:47:01;15.97;;;10.60;;
15082;SDS011;7640;53.116;6.878;2023-05-10T01:49:39;17.03;;;10.70;;
15082;SDS011;7640;53.116;6.878;2023-05-10T01:52:12;16.90;;;10.77;;
15082;SDS011;7640;53.116;6.878;2023-05-10T01:54:48;14.40;;;9.97;;
15082;SDS011;7640;53.116;6.878;2023-05-10T01:57:24;15.73;;;9.77;;
15082;SDS011;7640;53.116;6.878;2023-05-10T01:59:55;16.57;;;10.40;;
15082;SDS011;7640;53.116;6.878;2023-05-10T02:02:25;16.23;;;10.37;;
15082;SDS011;7640;53.116;6.878;2023-05-10T02:04:57;14.07;;;9.10;;
15082;SDS011;7640;53.116;6.878;2023-05-10T02:07:26;16.73;;;10.20;;
15082;SDS011;7640;53.116;6.878;2023-05-10T02:09:56;14.67;;;9.13;;
15082;SDS011;7640;53.116;6.878;2023-05-10T02:12:26;15.40;;;9.60;;
15082;SDS011;7640;53.116;6.878;2023-05-10T02:14:57;14.90;;;9.90;;
15082;SDS011;7640;53.116;6.878;2023-05-10T02:17:31;16.07;;;10.20;;
15082;SDS011;7640;53.116;6.878;2023-05-10T02:20:01;15.60;;;9.33;;
15082;SDS011;7640;53.116;6.878;2023-05-10T02:22:32;16.40;;;10.30;;
15082;SDS011;7640;53.116;6.878;2023-05-10T02:25:02;16.20;;;10.40;;
15082;SDS011;7640;53.116;6.878;2023-05-10T02:27:32;13.73;;;9.77;;
15082;SDS011;7640;53.116;6.878;2023-05-10T02:30:02;15.27;;;9.43;;
15082;SDS011;7640;53.116;6.878;2023-05-10T02:32:35;16.43;;;10.17;;
15082;SDS011;7640;53.116;6.878;2023-05-10T02:35:07;14.87;;;9.90;;
15082;SDS011;7640;53.116;6.878;2023-05-10T02:37:37;16.13;;;10.70;;
15082;SDS011;7640;53.116;6.878;2023-05-10T02:40:07;16.60;;;10.57;;
15082;SDS011;7640;53.116;6.878;2023-05-10T02:42:38;16.27;;;10.90;;
15082;SDS011;7640;53.116;6.878;2023-05-10T02:45:11;16.13;;;9.33;;
15082;SDS011;7640;53.116;6.878;2023-05-10T02:47:43;16.10;;;9.47;;
15082;SDS011;7640;53.116;6.878;2023-05-10T02:50:13;15.83;;;9.60;;
15082;SDS011;7640;53.116;6.878;2023-05-10T02:52:42;16.70;;;9.97;;
15082;SDS011;7640;53.116;6.878;2023-05-10T02:55:15;14.83;;;9.87;;
15082;SDS011;7640;53.116;6.878;2023-05-10T02:57:48;16.13;;;10.33;;
15082;SDS011;7640;53.116;6.878;2023-05-10T03:00:22;16.30;;;9.93;;
15082;SDS011;7640;53.116;6.878;2023-05-10T03:02:52;16.77;;;10.80;;
15082;SDS011;7640;53.116;6.878;2023-05-10T03:05:22;17.87;;;10.17;;
15082;SDS011;7640;53.116;6.878;2023-05-10T03:07:51;15.93;;;10.97;;
15082;SDS011;7640;53.116;6.878;2023-05-10T03:10:21;17.63;;;10.90;;
15082;SDS011;7640;53.116;6.878;2023-05-10T03:12:57;16.90;;;10.93;;
15082;SDS011;7640;53.116;6.878;2023-05-10T03:15:37;17.63;;;11.20;;
15082;SDS011;7640;53.116;6.878;2023-05-10T03:18:21;15.03;;;9.90;;
15082;SDS011;7640;53.116;6.878;2023-05-10T03:21:01;17.10;;;11.10;;
15082;SDS011;7640;53.116;6.878;2023-05-10T03:23:34;19.10;;;12.17;;
15082;SDS011;7640;53.116;6.878;2023-05-10T03:26:08;18.43;;;11.33;;
15082;SDS011;7640;53.116;6.878;2023-05-10T03:28:37;20.17;;;11.67;;
15082;SDS011;7640;53.116;6.878;2023-05-10T03:31:07;19.30;;;11.07;;
15082;SDS011;7640;53.116;6.878;2023-05-10T03:33:38;19.30;;;11.63;;
15082;SDS011;7640;53.116;6.878;2023-05-10T03:36:16;22.73;;;12.30;;
15082;SDS011;7640;53.116;6.878;2023-05-10T03:38:44;20.27;;;12.10;;
15082;SDS011;7640;53.116;6.878;2023-05-10T03:41:13;20.43;;;11.93;;
15082;SDS011;7640;53.116;6.878;2023-05-10T03:43:41;21.70;;;12.23;;
15082;SDS011;7640;53.116;6.878;2023-05-10T03:46:10;19.17;;;12.13;;
15082;SDS011;7640;53.116;6.878;2023-05-10T03:48:38;23.60;;;13.60;;
15082;SDS011;7640;53.116;6.878;2023-05-10T03:51:07;22.20;;;13.13;;
15082;SDS011;7640;53.116;6.878;2023-05-10T03:53:37;21.63;;;12.57;;
15082;SDS011;7640;53.116;6.878;2023-05-10T03:56:05;22.73;;;13.10;;
15082;SDS011;7640;53.116;6.878;2023-05-10T03:58:34;22.17;;;12.97;;
15082;SDS011;7640;53.116;6.878;2023-05-10T04:01:02;24.47;;;14.03;;
15082;SDS011;7640;53.116;6.878;2023-05-10T04:03:31;23.80;;;14.13;;
15082;SDS011;7640;53.116;6.878;2023-05-10T04:05:59;28.13;;;14.17;;
15082;SDS011;7640;53.116;6.878;2023-05-10T04:08:29;26.03;;;13.93;;
15082;SDS011;7640;53.116;6.878;2023-05-10T04:11:05;26.83;;;14.40;;
15082;SDS011;7640;53.116;6.878;2023-05-10T04:13:35;24.93;;;13.70;;
15082;SDS011;7640;53.116;6.878;2023-05-10T04:16:04;28.63;;;15.10;;
15082;SDS011;7640;53.116;6.878;2023-05-10T04:18:33;27.47;;;14.90;;
15082;SDS011;7640;53.116;6.878;2023-05-10T04:21:02;25.90;;;14.60;;
15082;SDS011;7640;53.116;6.878;2023-05-10T04:23:30;28.40;;;15.53;;
15082;SDS011;7640;53.116;6.878;2023-05-10T04:25:59;26.90;;;14.70;;
15082;SDS011;7640;53.116;6.878;2023-05-10T04:28:29;28.10;;;15.23;;
15082;SDS011;7640;53.116;6.878;2023-05-10T04:31:01;31.63;;;16.07;;
15082;SDS011;7640;53.116;6.878;2023-05-10T04:33:30;25.80;;;14.80;;
15082;SDS011;7640;53.116;6.878;2023-05-10T04:36:00;25.93;;;14.20;;
15082;SDS011;7640;53.116;6.878;2023-05-10T04:38:29;29.07;;;14.57;;
15082;SDS011;7640;53.116;6.878;2023-05-10T04:41:03;23.03;;;12.77;;
15082;SDS011;7640;53.116;6.878;2023-05-10T04:43:34;22.90;;;12.73;;
15082;SDS011;7640;53.116;6.878;2023-05-10T04:46:02;22.97;;;12.57;;
15082;SDS011;7640;53.116;6.878;2023-05-10T04:48:32;25.90;;;15.27;;
15082;SDS011;7640;53.116;6.878;2023-05-10T04:51:01;27.03;;;15.40;;
15082;SDS011;7640;53.116;6.878;2023-05-10T04:53:32;26.57;;;15.27;;
15082;SDS011;7640;53.116;6.878;2023-05-10T04:56:01;25.30;;;15.23;;
15082;SDS011;7640;53.116;6.878;2023-05-10T04:58:30;22.80;;;13.53;;
15082;SDS011;7640;53.116;6.878;2023-05-10T05:01:05;20.67;;;13.63;;
15082;SDS011;7640;53.116;6.878;2023-05-10T05:03:34;23.33;;;13.43;;
15082;SDS011;7640;53.116;6.878;2023-05-10T05:06:04;21.97;;;13.73;;
15082;SDS011;7640;53.116;6.878;2023-05-10T05:08:33;20.37;;;12.57;;
15082;SDS011;7640;53.116;6.878;2023-05-10T05:11:02;18.03;;;12.27;;
15082;SDS011;7640;53.116;6.878;2023-05-10T05:13:30;16.47;;;11.13;;
15082;SDS011;7640;53.116;6.878;2023-05-10T05:16:00;16.70;;;11.20;;
15082;SDS011;7640;53.116;6.878;2023-05-10T05:18:30;18.80;;;11.27;;
15082;SDS011;7640;53.116;6.878;2023-05-10T05:20:58;18.03;;;11.20;;
15082;SDS011;7640;53.116;6.878;2023-05-10T05:23:27;17.70;;;11.27;;
15082;SDS011;7640;53.116;6.878;2023-05-10T05:25:56;17.63;;;11.67;;
15082;SDS011;7640;53.116;6.878;2023-05-10T05:28:25;15.50;;;10.77;;
15082;SDS011;7640;53.116;6.878;2023-05-10T05:31:00;17.00;;;11.20;;
15082;SDS011;7640;53.116;6.878;2023-05-10T05:33:28;14.73;;;9.87;;
15082;SDS011;7640;53.116;6.878;2023-05-10T05:36:00;16.13;;;11.13;;
15082;SDS011;7640;53.116;6.878;2023-05-10T05:38:29;17.57;;;10.43;;
15082;SDS011;7640;53.116;6.878;2023-05-10T05:40:57;14.60;;;10.17;;
15082;SDS011;7640;53.116;6.878;2023-05-10T05:43:25;14.57;;;10.23;;
15082;SDS011;7640;53.116;6.878;2023-05-10T05:45:54;16.77;;;10.83;;
15082;SDS011;7640;53.116;6.878;2023-05-10T05:48:24;14.23;;;10.10;;
15082;SDS011;7640;53.116;6.878;2023-05-10T05:50:55;13.30;;;9.63;;
15082;SDS011;7640;53.116;6.878;2023-05-10T05:53:27;12.80;;;9.30;;
15082;SDS011;7640;53.116;6.878;2023-05-10T05:55:58;14.70;;;10.27;;
15082;SDS011;7640;53.116;6.878;2023-05-10T05:58:27;12.27;;;9.17;;
15082;SDS011;7640;53.116;6.878;2023-05-10T06:00:55;13.13;;;9.90;;
15082;SDS011;7640;53.116;6.878;2023-05-10T06:03:23;13.30;;;8.90;;
15082;SDS011;7640;53.116;6.878;2023-05-10T06:05:53;10.40;;;7.17;;
15082;SDS011;7640;53.116;6.878;2023-05-10T06:08:23;10.47;;;7.43;;
15082;SDS011;7640;53.116;6.878;2023-05-10T06:10:52;8.57;;;6.87;;
15082;SDS011;7640;53.116;6.878;2023-05-10T06:13:21;7.23;;;5.90;;
15082;SDS011;7640;53.116;6.878;2023-05-10T06:15:50;7.87;;;6.10;;
15082;SDS011;7640;53.116;6.878;2023-05-10T06:18:18;9.03;;;6.43;;
15082;SDS011;7640;53.116;6.878;2023-05-10T06:20:47;6.37;;;5.00;;
15082;SDS011;7640;53.116;6.878;2023-05-10T06:23:18;5.77;;;4.77;;
15082;SDS011;7640;53.116;6.878;2023-05-10T06:25:48;5.70;;;4.30;;
15082;SDS011;7640;53.116;6.878;2023-05-10T06:28:17;4.63;;;4.00;;
15082;SDS011;7640;53.116;6.878;2023-05-10T06:30:46;4.70;;;4.20;;
15082;SDS011;7640;53.116;6.878;2023-05-10T06:33:15;4.83;;;4.20;;
15082;SDS011;7640;53.116;6.878;2023-05-10T06:35:43;5.10;;;3.73;;
15082;SDS011;7640;53.116;6.878;2023-05-10T06:38:12;5.40;;;4.37;;
15082;SDS011;7640;53.116;6.878;2023-05-10T06:40:41;5.27;;;3.73;;
15082;SDS011;7640;53.116;6.878;2023-05-10T06:43:11;5.63;;;3.80;;
15082;SDS011;7640;53.116;6.878;2023-05-10T06:45:40;3.77;;;3.40;;
15082;SDS011;7640;53.116;6.878;2023-05-10T06:48:08;3.23;;;2.93;;
15082;SDS011;7640;53.116;6.878;2023-05-10T06:50:37;3.60;;;3.13;;
15082;SDS011;7640;53.116;6.878;2023-05-10T06:53:05;4.13;;;3.30;;
15082;SDS011;7640;53.116;6.878;2023-05-10T06:55:34;5.37;;;3.47;;
15082;SDS011;7640;53.116;6.878;2023-05-10T06:58:02;4.13;;;3.33;;
15082;SDS011;7640;53.116;6.878;2023-05-10T07:00:32;3.43;;;3.13;;
15082;SDS011;7640;53.116;6.878;2023-05-10T07:03:06;4.40;;;4.00;;
15082;SDS011;7640;53.116;6.878;2023-05-10T07:05:34;5.90;;;4.10;;
15082;SDS011;7640;53.116;6.878;2023-05-10T07:08:03;5.47;;;3.90;;
15082;SDS011;7640;53.116;6.878;2023-05-10T07:10:32;5.90;;;4.90;;
15082;SDS011;7640;53.116;6.878;2023-05-10T07:13:02;7.30;;;5.00;;
15082;SDS011;7640;53.116;6.878;2023-05-10T07:15:32;7.73;;;5.53;;
15082;SDS011;7640;53.116;6.878;2023-05-10T07:18:01;7.70;;;5.60;;
15082;SDS011;7640;53.116;6.878;2023-05-10T07:20:31;8.93;;;6.33;;
15082;SDS011;7640;53.116;6.878;2023-05-10T07:22:59;9.17;;;5.43;;
15082;SDS011;7640;53.116;6.878;2023-05-10T07:25:28;9.67;;;6.97;;
15082;SDS011;7640;53.116;6.878;2023-05-10T07:27:57;9.57;;;7.40;;
15082;SDS011;7640;53.116;6.878;2023-05-10T07:30:25;10.93;;;7.00;;
15082;SDS011;7640;53.116;6.878;2023-05-10T07:32:55;11.23;;;7.13;;
15082;SDS011;7640;53.116;6.878;2023-05-10T07:35:26;12.90;;;6.97;;
15082;SDS011;7640;53.116;6.878;2023-05-10T07:37:54;13.90;;;7.97;;
15082;SDS011;7640;53.116;6.878;2023-05-10T07:40:23;15.10;;;8.93;;
15082;SDS011;7640;53.116;6.878;2023-05-10T07:42:51;12.70;;;8.67;;
15082;SDS011;7640;53.116;6.878;2023-05-10T07:45:20;10.90;;;8.07;;
15082;SDS011;7640;53.116;6.878;2023-05-10T07:47:49;9.73;;;6.40;;
15082;SDS011;7640;53.116;6.878;2023-05-10T07:50:20;7.17;;;5.43;;
15082;SDS011;7640;53.116;6.878;2023-05-10T07:52:48;7.10;;;5.00;;
15082;SDS011;7640;53.116;6.878;2023-05-10T07:55:18;6.93;;;4.63;;
15082;SDS011;7640;53.116;6.878;2023-05-10T07:57:47;4.20;;;3.63;;
15082;SDS011;7640;53.116;6.878;2023-05-10T08:00:18;4.97;;;3.70;;
15082;SDS011;7640;53.116;6.878;2023-05-10T08:02:48;5.90;;;4.27;;
15082;SDS011;7640;53.116;6.878;2023-05-10T08:05:16;5.10;;;4.20;;
15082;SDS011;7640;53.116;6.878;2023-05-10T08:07:46;5.13;;;3.67;;
15082;SDS011;7640;53.116;6.878;2023-05-10T08:10:15;4.70;;;4.10;;
15082;SDS011;7640;53.116;6.878;2023-05-10T08:12:43;5.90;;;4.00;;
15082;SDS011;7640;53.116;6.878;2023-05-10T08:15:12;4.97;;;3.77;;
15082;SDS011;7640;53.116;6.878;2023-05-10T08:17:41;5.30;;;4.00;;
15082;SDS011;7640;53.116;6.878;2023-05-10T08:20:09;5.10;;;4.00;;
15082;SDS011;7640;53.116;6.878;2023-05-10T08:22:43;4.47;;;4.07;;
15082;SDS011;7640;53.116;6.878;2023-05-10T08:25:13;5.30;;;4.50;;
15082;SDS011;7640;53.116;6.878;2023-05-10T08:27:42;4.73;;;4.23;;
15082;SDS011;7640;53.116;6.878;2023-05-10T08:30:11;6.90;;;4.67;;
15082;SDS011;7640;53.116;6.878;2023-05-10T08:32:40;5.97;;;4.87;;
15082;SDS011;7640;53.116;6.878;2023-05-10T08:35:09;6.30;;;5.17;;
15082;SDS011;7640;53.116;6.878;2023-05-10T08:37:37;5.10;;;4.60;;
15082;SDS011;7640;53.116;6.878;2023-05-10T08:40:06;4.53;;;4.13;;
15082;SDS011;7640;53.116;6.878;2023-05-10T08:42:47;5.03;;;4.13;;
15082;SDS011;7640;53.116;6.878;2023-05-10T08:45:24;5.50;;;4.80;;
15082;SDS011;7640;53.116;6.878;2023-05-10T08:47:58;6.17;;;5.57;;
15082;SDS011;7640;53.116;6.878;2023-05-10T08:50:29;6.00;;;5.47;;
15082;SDS011;7640;53.116;6.878;2023-05-10T08:53:00;8.17;;;7.30;;
15082;SDS011;7640;53.116;6.878;2023-05-10T08:55:32;7.43;;;6.57;;
15082;SDS011;7640;53.116;6.878;2023-05-10T08:58:04;6.43;;;5.73;;
15082;SDS011;7640;53.116;6.878;2023-05-10T09:00:33;6.73;;;6.00;;
15082;SDS011;7640;53.116;6.878;2023-05-10T09:03:03;7.33;;;5.80;;
15082;SDS011;7640;53.116;6.878;2023-05-10T09:05:33;8.20;;;6.27;;
15082;SDS011;7640;53.116;6.878;2023-05-10T09:08:04;8.03;;;6.97;;
15082;SDS011;7640;53.116;6.878;2023-05-10T09:10:33;8.83;;;7.57;;
15082;SDS011;7640;53.116;6.878;2023-05-10T09:13:03;8.87;;;7.33;;
15082;SDS011;7640;53.116;6.878;2023-05-10T09:15:32;10.13;;;7.17;;
15082;SDS011;7640;53.116;6.878;2023-05-10T09:18:01;8.70;;;7.30;;
15082;SDS011;7640;53.116;6.878;2023-05-10T09:20:30;9.40;;;7.20;;
15082;SDS011;7640;53.116;6.878;2023-05-10T09:22:59;9.33;;;7.00;;
15082;SDS011;7640;53.116;6.878;2023-05-10T09:25:27;9.13;;;7.37;;
15082;SDS011;7640;53.116;6.878;2023-05-10T09:27:56;9.30;;;7.10;;
15082;SDS011;7640;53.116;6.878;2023-05-10T09:30:26;8.47;;;6.40;;
15082;SDS011;7640;53.116;6.878;2023-05-10T09:32:56;9.57;;;7.20;;
15082;SDS011;7640;53.116;6.878;2023-05-10T09:35:26;8.43;;;6.80;;
15082;SDS011;7640;53.116;6.878;2023-05-10T09:37:58;7.77;;;6.20;;
15082;SDS011;7640;53.116;6.878;2023-05-10T09:40:30;7.93;;;7.00;;
15082;SDS011;7640;53.116;6.878;2023-05-10T09:42:59;8.10;;;7.10;;
15082;SDS011;7640;53.116;6.878;2023-05-10T09:45:31;8.20;;;7.40;;
15082;SDS011;7640;53.116;6.878;2023-05-10T09:48:09;8.77;;;7.20;;
15082;SDS011;7640;53.116;6.878;2023-05-10T09:50:37;8.97;;;7.83;;
15082;SDS011;7640;53.116;6.878;2023-05-10T09:53:06;8.73;;;7.07;;
15082;SDS011;7640;53.116;6.878;2023-05-10T09:55:38;8.83;;;7.23;;
15082;SDS011;7640;53.116;6.878;2023-05-10T09:58:10;8.37;;;6.93;;
15082;SDS011;7640;53.116;6.878;2023-05-10T10:00:41;8.43;;;7.43;;
15082;SDS011;7640;53.116;6.878;2023-05-10T10:03:12;9.27;;;6.77;;
15082;SDS011;7640;53.116;6.878;2023-05-10T10:05:42;8.70;;;6.53;;
15082;SDS011;7640;53.116;6.878;2023-05-10T10:08:12;9.80;;;7.27;;
15082;SDS011;7640;53.116;6.878;2023-05-10T10:10:42;9.23;;;7.20;;
15082;SDS011;7640;53.116;6.878;2023-05-10T10:13:13;7.63;;;6.83;;
15082;SDS011;7640;53.116;6.878;2023-05-10T10:15:44;8.23;;;7.00;;
15082;SDS011;7640;53.116;6.878;2023-05-10T10:18:17;8.33;;;6.73;;
15082;SDS011;7640;53.116;6.878;2023-05-10T10:20:50;9.47;;;6.40;;
15082;SDS011;7640;53.116;6.878;2023-05-10T10:23:19;8.17;;;6.40;;
15082;SDS011;7640;53.116;6.878;2023-05-10T10:25:48;7.23;;;6.10;;
15082;SDS011;7640;53.116;6.878;2023-05-10T10:28:21;8.17;;;6.40;;
15082;SDS011;7640;53.116;6.878;2023-05-10T10:31:00;7.27;;;6.10;;
15082;SDS011;7640;53.116;6.878;2023-05-10T10:33:51;9.13;;;6.90;;
15082;SDS011;7640;53.116;6.878;2023-05-10T10:36:28;8.20;;;7.00;;
15082;SDS011;7640;53.116;6.878;2023-05-10T10:38:57;6.87;;;6.17;;
15082;SDS011;7640;53.116;6.878;2023-05-10T10:41:28;7.67;;;6.87;;
15082;SDS011;7640;53.116;6.878;2023-05-10T10:47:05;6.33;;;5.67;;
15082;SDS011;7640;53.116;6.878;2023-05-10T10:50:05;6.83;;;5.97;;
15082;SDS011;7640;53.116;6.878;2023-05-10T10:52:35;7.83;;;6.17;;
15082;SDS011;7640;53.116;6.878;2023-05-10T10:55:05;6.83;;;5.83;;
15082;SDS011;7640;53.116;6.878;2023-05-10T10:57:48;7.47;;;6.10;;
15082;SDS011;7640;53.116;6.878;2023-05-10T11:00:25;6.90;;;5.93;;
15082;SDS011;7640;53.116;6.878;2023-05-10T11:02:59;9.67;;;6.43;;
15082;SDS011;7640;53.116;6.878;2023-05-10T11:05:38;6.90;;;6.10;;
15082;SDS011;7640;53.116;6.878;2023-05-10T11:08:09;8.30;;;6.70;;
15082;SDS011;7640;53.116;6.878;2023-05-10T11:10:50;8.67;;;6.10;;
15082;SDS011;7640;53.116;6.878;2023-05-10T11:13:38;7.83;;;5.97;;
15082;SDS011;7640;53.116;6.878;2023-05-10T11:16:15;8.20;;;6.60;;
15082;SDS011;7640;53.116;6.878;2023-05-10T11:18:54;8.63;;;7.33;;
15082;SDS011;7640;53.116;6.878;2023-05-10T11:21:28;12.57;;;6.23;;
15082;SDS011;7640;53.116;6.878;2023-05-10T11:23:58;7.60;;;5.80;;
15082;SDS011;7640;53.116;6.878;2023-05-10T11:26:30;7.90;;;5.97;;
15082;SDS011;7640;53.116;6.878;2023-05-10T11:29:00;7.27;;;5.87;;
15082;SDS011;7640;53.116;6.878;2023-05-10T11:31:31;6.93;;;5.57;;
15082;SDS011;7640;53.116;6.878;2023-05-10T11:34:01;7.13;;;6.10;;
15082;SDS011;7640;53.116;6.878;2023-05-10T11:36:32;7.87;;;5.83;;
15082;SDS011;7640;53.116;6.878;2023-05-10T11:39:02;6.40;;;5.53;;
15082;SDS011;7640;53.116;6.878;2023-05-10T11:41:32;7.33;;;6.27;;
15082;SDS011;7640;53.116;6.878;2023-05-10T11:44:00;8.10;;;6.70;;
15082;SDS011;7640;53.116;6.878;2023-05-10T11:46:29;7.60;;;6.23;;
15082;SDS011;7640;53.116;6.878;2023-05-10T11:48:59;8.00;;;5.83;;
15082;SDS011;7640;53.116;6.878;2023-05-10T11:51:32;8.13;;;6.03;;
15082;SDS011;7640;53.116;6.878;2023-05-10T11:54:05;9.17;;;6.60;;
15082;SDS011;7640;53.116;6.878;2023-05-10T11:56:36;8.30;;;6.73;;
15082;SDS011;7640;53.116;6.878;2023-05-10T11:59:05;8.57;;;6.63;;
15082;SDS011;7640;53.116;6.878;2023-05-10T12:01:34;9.23;;;7.30;;
15082;SDS011;7640;53.116;6.878;2023-05-10T12:04:05;7.93;;;6.57;;
15082;SDS011;7640;53.116;6.878;2023-05-10T12:06:35;7.73;;;5.80;;
15082;SDS011;7640;53.116;6.878;2023-05-10T12:09:08;7.30;;;6.20;;
15082;SDS011;7640;53.116;6.878;2023-05-10T12:11:37;8.70;;;6.90;;
15082;SDS011;7640;53.116;6.878;2023-05-10T12:14:09;7.97;;;6.40;;
15082;SDS011;7640;53.116;6.878;2023-05-10T12:16:38;9.70;;;7.00;;
15082;SDS011;7640;53.116;6.878;2023-05-10T12:19:09;9.10;;;7.13;;
15082;SDS011;7640;53.116;6.878;2023-05-10T12:21:38;7.53;;;6.40;;
15082;SDS011;7640;53.116;6.878;2023-05-10T12:24:07;7.60;;;6.00;;
15082;SDS011;7640;53.116;6.878;2023-05-10T12:26:36;7.73;;;6.40;;
15082;SDS011;7640;53.116;6.878;2023-05-10T12:29:11;7.73;;;5.90;;
15082;SDS011;7640;53.116;6.878;2023-05-10T12:31:52;7.60;;;5.17;;
15082;SDS011;7640;53.116;6.878;2023-05-10T12:34:25;7.23;;;6.13;;
15082;SDS011;7640;53.116;6.878;2023-05-10T12:36:54;9.07;;;6.67;;
15082;SDS011;7640;53.116;6.878;2023-05-10T12:39:23;8.07;;;6.10;;
15082;SDS011;7640;53.116;6.878;2023-05-10T12:41:52;8.70;;;6.13;;
15082;SDS011;7640;53.116;6.878;2023-05-10T12:44:21;7.83;;;6.10;;
15082;SDS011;7640;53.116;6.878;2023-05-10T12:46:50;9.27;;;6.40;;
15082;SDS011;7640;53.116;6.878;2023-05-10T12:49:20;8.13;;;5.73;;
15082;SDS011;7640;53.116;6.878;2023-05-10T12:51:53;6.30;;;5.70;;
15082;SDS011;7640;53.116;6.878;2023-05-10T12:54:22;8.73;;;6.17;;
15082;SDS011;7640;53.116;6.878;2023-05-10T12:56:51;11.90;;;6.80;;
15082;SDS011;7640;53.116;6.878;2023-05-10T12:59:23;8.27;;;6.77;;
15082;SDS011;7640;53.116;6.878;2023-05-10T13:01:52;11.23;;;6.27;;
15082;SDS011;7640;53.116;6.878;2023-05-10T13:04:22;9.03;;;7.10;;
15082;SDS011;7640;53.116;6.878;2023-05-10T13:06:54;10.57;;;6.70;;
15082;SDS011;7640;53.116;6.878;2023-05-10T13:09:25;9.10;;;5.27;;
15082;SDS011;7640;53.116;6.878;2023-05-10T13:11:55;9.07;;;5.57;;
15082;SDS011;7640;53.116;6.878;2023-05-10T13:14:24;6.97;;;5.27;;
15082;SDS011;7640;53.116;6.878;2023-05-10T13:16:53;8.33;;;6.20;;
15082;SDS011;7640;53.116;6.878;2023-05-10T13:19:22;8.03;;;6.20;;
15082;SDS011;7640;53.116;6.878;2023-05-10T13:21:51;8.90;;;6.87;;
15082;SDS011;7640;53.116;6.878;2023-05-10T13:24:21;9.57;;;6.93;;
15082;SDS011;7640;53.116;6.878;2023-05-10T13:26:50;10.00;;;6.80;;
15082;SDS011;7640;53.116;6.878;2023-05-10T13:29:18;12.50;;;7.03;;
15082;SDS011;7640;53.116;6.878;2023-05-10T13:31:48;9.63;;;6.30;;
15082;SDS011;7640;53.116;6.878;2023-05-10T13:34:17;9.57;;;6.60;;
15082;SDS011;7640;53.116;6.878;2023-05-10T13:36:48;9.20;;;6.43;;
15082;SDS011;7640;53.116;6.878;2023-05-10T13:39:19;8.07;;;5.90;;
15082;SDS011;7640;53.116;6.878;2023-05-10T13:41:50;8.03;;;5.97;;
15082;SDS011;7640;53.116;6.878;2023-05-10T13:44:20;8.13;;;4.97;;
15082;SDS011;7640;53.116;6.878;2023-05-10T13:46:50;7.10;;;5.60;;
15082;SDS011;7640;53.116;6.878;2023-05-10T13:49:19;8.57;;;5.50;;
15082;SDS011;7640;53.116;6.878;2023-05-10T13:51:47;6.57;;;5.20;;
15082;SDS011;7640;53.116;6.878;2023-05-10T13:54:17;7.47;;;5.20;;
15082;SDS011;7640;53.116;6.878;2023-05-10T13:56:48;6.03;;;5.00;;
15082;SDS011;7640;53.116;6.878;2023-05-10T13:59:17;8.10;;;5.63;;
15082;SDS011;7640;53.116;6.878;2023-05-10T14:01:45;8.40;;;5.23;;
15082;SDS011;7640;53.116;6.878;2023-05-10T14:04:14;9.47;;;5.73;;
15082;SDS011;7640;53.116;6.878;2023-05-10T14:06:42;8.03;;;5.27;;
15082;SDS011;7640;53.116;6.878;2023-05-10T14:09:12;10.07;;;5.73;;
15082;SDS011;7640;53.116;6.878;2023-05-10T14:11:41;7.43;;;5.67;;
15082;SDS011;7640;53.116;6.878;2023-05-10T14:14:12;6.93;;;5.53;;
15082;SDS011;7640;53.116;6.878;2023-05-10T14:16:41;8.60;;;6.00;;
15082;SDS011;7640;53.116;6.878;2023-05-10T14:19:11;10.30;;;6.17;;
15082;SDS011;7640;53.116;6.878;2023-05-10T14:21:40;11.87;;;6.03;;
15082;SDS011;7640;53.116;6.878;2023-05-10T14:24:09;10.33;;;6.57;;
15082;SDS011;7640;53.116;6.878;2023-05-10T14:26:38;7.90;;;6.03;;
15082;SDS011;7640;53.116;6.878;2023-05-10T14:29:06;11.73;;;6.53;;
15082;SDS011;7640;53.116;6.878;2023-05-10T14:31:39;8.33;;;6.63;;
15082;SDS011;7640;53.116;6.878;2023-05-10T14:34:08;11.60;;;7.50;;
15082;SDS011;7640;53.116;6.878;2023-05-10T14:36:37;10.33;;;7.43;;
15082;SDS011;7640;53.116;6.878;2023-05-10T14:39:06;9.40;;;6.83;;
15082;SDS011;7640;53.116;6.878;2023-05-10T14:41:36;10.17;;;6.13;;
15082;SDS011;7640;53.116;6.878;2023-05-10T14:44:07;8.73;;;6.20;;
15082;SDS011;7640;53.116;6.878;2023-05-10T14:46:36;11.13;;;6.80;;
15082;SDS011;7640;53.116;6.878;2023-05-10T14:49:06;10.00;;;6.47;;
15082;SDS011;7640;53.116;6.878;2023-05-10T14:51:34;10.00;;;6.50;;
15082;SDS011;7640;53.116;6.878;2023-05-10T14:54:04;8.50;;;5.80;;
15082;SDS011;7640;53.116;6.878;2023-05-10T14:56:32;10.53;;;7.30;;
15082;SDS011;7640;53.116;6.878;2023-05-10T14:59:01;10.27;;;7.13;;
15082;SDS011;7640;53.116;6.878;2023-05-10T15:01:30;10.23;;;7.57;;
15082;SDS011;7640;53.116;6.878;2023-05-10T15:03:59;9.60;;;7.33;;
15082;SDS011;7640;53.116;6.878;2023-05-10T15:06:31;10.73;;;7.47;;
15082;SDS011;7640;53.116;6.878;2023-05-10T15:09:01;12.03;;;7.33;;
15082;SDS011;7640;53.116;6.878;2023-05-10T15:11:30;11.53;;;8.17;;
15082;SDS011;7640;53.116;6.878;2023-05-10T15:13:59;11.13;;;7.73;;
15082;SDS011;7640;53.116;6.878;2023-05-10T15:16:28;11.97;;;8.93;;
15082;SDS011;7640;53.116;6.878;2023-05-10T15:19:00;11.73;;;7.53;;
15082;SDS011;7640;53.116;6.878;2023-05-10T15:21:29;11.00;;;7.80;;